Hovedside
METAR-TAF:

METAR-TAF

Lufthavner :

Uleåborg, Finland

Uleåborg lufthavn

breddegrad: 64-56N, lengdegrad: 025-22E, høyde over havet: 12 m

Gjeldene værobservasjon

Denne rapporten ble laget for 16 minutter siden, klokken 22:20 UTC
Vind 2 kt fra skiftende retning
Temperatur 15°C
Luftfuktighet 82%
Trykk 1016 hPa
Sikt 10 km eller mer

METAR: EFOU 242220Z AUTO VRB02KT 9999 FEW053/// OVC100/// 15/12 Q1016

Tid: 01:36 (22:36 UTC)

Varsel

Denne rapporten ble laget for 2 timer og 10 minutter siden, klokken 20:26 UTC
Varsel gyldig fra 24. klokken 21 UTC til 25. klokken 21 UTC
Vind 5 kt fra Øst-nordøst
Sikt 10 km eller mer
Brutte skyer i en høyde av 4000 ft
Midlertidig
fra 24. klokken 23 UTC til 25. klokken 21 UTC
Få skyer i en høyde av 5000 ft, Bygeskyer.
Sannsynlighet 30% :
Midlertidig
fra 25. klokken 12 UTC til 25. klokken 21 UTC
Sikt: 7000 m
regnbyger

TAF: EFOU 242026Z 2421/2521 07005KT 9999 BKN040 TEMPO 2423/2521 FEW050CB PROB30 TEMPO 2512/2521 7000 SHRA

Værobservasjoner og værvarsel for over 4000 flyplasser (METAR- og TAF-rapporter).

Tilgjengelige stasjoner er representert av de røde og gule prikkene på kartet.

Hold musepekeren over prikken for å se navnet på stasjonen.

Klikk så for å se værobservasjoner og -varsler.

For å forandre kartet kan du klikke på den grønne knappen med svart kryss for å zoome inn, på den grønne knappen med strek for å zoome ut, eller på de grønne pilene for å se tilstøtende kart.


METAR-TAF: